Time;durP1;ratioP1;P1;durP2;ratioP2;P2;SDS_P1;SDS_P2;PMS_P1;PMS_P2;Temp;Humidity;BMP_temperature;BMP_pressure;BME280_temperature;BME280_humidity;BME280_pressure;Samples;Min_cycle;Max_cycle;Signal;HPM_P1;HPM_P2
2023/08/08 00:00:36;;;;;;;4.13;1.73;;;;;;;-145.00;61.33;73957.00;5061718;28;20490;-82
2023/08/08 00:03:02;;;;;;;3.22;1.35;;;;;;;-145.00;60.86;73952.84;5071955;28;20040;-81
2023/08/08 00:05:29;;;;;;;3.25;1.45;;;;;;;-145.00;60.93;73942.44;5072580;28;20036;-79
2023/08/08 00:07:55;;;;;;;2.47;1.35;;;;;;;-145.00;61.24;73963.25;5072657;28;20040;-81
2023/08/08 00:10:22;;;;;;;2.55;1.65;;;;;;;-145.00;61.57;73963.25;5066874;28;20048;-85
2023/08/08 00:12:50;;;;;;;3.03;1.52;;;;;;;-145.00;60.90;73950.75;5071361;28;20400;-83
2023/08/08 00:15:16;;;;;;;2.95;1.52;;;;;;;-145.00;60.80;73942.44;5071878;28;20032;-81
2023/08/08 00:17:43;;;;;;;3.60;1.90;;;;;;;-145.00;60.69;73942.44;5072723;28;20040;-82
2023/08/08 00:20:10;;;;;;;4.72;1.83;;;;;;;-145.00;61.09;73975.75;5071552;28;20045;-81
2023/08/08 00:22:37;;;;;;;3.75;1.70;;;;;;;-145.00;61.20;73971.56;5071973;28;20048;-81
2023/08/08 00:25:04;;;;;;;4.47;1.90;;;;;;;-145.00;60.96;73971.56;5072842;28;20072;-84
2023/08/08 00:27:30;;;;;;;4.40;1.77;;;;;;;-145.00;61.89;73975.75;5072668;28;20557;-82
2023/08/08 00:29:58;;;;;;;3.80;1.90;;;;;;;-145.00;61.12;73967.41;5073007;28;20040;-83
2023/08/08 00:32:25;;;;;;;3.63;1.75;;;;;;;-145.00;60.99;73959.09;5071501;28;20047;-82
2023/08/08 00:34:51;;;;;;;3.95;1.73;;;;;;;-145.00;61.08;73948.69;5070081;28;20056;-81
2023/08/08 00:37:18;;;;;;;3.33;1.70;;;;;;;-145.00;60.58;73946.59;5068653;28;20058;-80
2023/08/08 00:39:45;;;;;;;3.67;1.80;;;;;;;-145.00;60.48;73944.50;5075320;28;20036;-79
2023/08/08 00:42:12;;;;;;;3.63;1.90;;;;;;;-145.00;59.87;73923.69;5074941;28;20044;-80
2023/08/08 00:44:40;;;;;;;2.70;1.60;;;;;;;-145.00;60.16;73934.09;5075072;28;20051;-81
2023/08/08 00:47:08;;;;;;;3.38;1.77;;;;;;;-145.00;59.80;73917.44;5074113;28;20131;-81
2023/08/08 00:49:35;;;;;;;3.63;1.45;;;;;;;-145.00;59.98;73913.28;5074751;28;20092;-81
2023/08/08 00:52:02;;;;;;;5.43;2.33;;;;;;;-145.00;59.69;73898.69;5073929;28;20052;-82
2023/08/08 00:54:28;;;;;;;2.55;1.67;;;;;;;-145.00;59.38;73888.28;5071668;28;20041;-81
2023/08/08 00:56:55;;;;;;;2.95;1.60;;;;;;;-145.00;59.28;73871.63;5067116;28;20048;-81
2023/08/08 00:59:22;;;;;;;2.70;1.50;;;;;;;-145.00;59.17;73879.97;5074864;28;20051;-83
2023/08/08 01:01:49;;;;;;;3.53;1.60;;;;;;;-145.00;59.31;73884.13;5075634;28;20498;-80
2023/08/08 01:04:17;;;;;;;3.28;1.70;;;;;;;-145.00;59.23;73871.63;5077907;28;20037;-81
2023/08/08 01:06:52;;;;;;;3.90;1.95;;;;;;;-145.00;59.19;73890.38;5075010;28;20044;-80
2023/08/08 01:09:24;;;;;;;2.92;1.40;;;;;;;-145.00;59.51;73892.44;5078059;28;20036;-82
2023/08/08 01:11:53;;;;;;;3.08;1.90;;;;;;;-145.00;59.89;73890.38;5077522;28;20053;-84
2023/08/08 01:14:24;;;;;;;3.97;1.88;;;;;;;-145.00;59.60;73879.97;5072402;28;20040;-81
2023/08/08 01:16:51;;;;;;;3.17;1.70;;;;;;;-145.00;58.96;73859.13;5077563;28;20101;-82
2023/08/08 01:19:26;;;;;;;2.30;1.50;;;;;;;-145.00;59.04;73846.63;5074994;28;20097;-81
2023/08/08 01:21:54;;;;;;;2.85;1.83;;;;;;;-145.00;58.56;73840.41;5071289;28;20564;-81
2023/08/08 01:24:23;;;;;;;2.25;1.35;;;;;;;-145.00;58.56;73842.47;5077975;28;20039;-81
2023/08/08 01:26:50;;;;;;;3.78;1.98;;;;;;;-145.00;57.91;73825.81;5077864;28;20076;-82
2023/08/08 01:29:16;;;;;;;2.60;1.40;;;;;;;-145.00;57.93;73823.72;5077012;28;20040;-80
2023/08/08 01:31:43;;;;;;;2.70;1.77;;;;;;;-145.00;58.50;73854.97;5077922;28;20040;-81
2023/08/08 01:34:10;;;;;;;4.40;1.85;;;;;;;-145.00;58.88;73863.28;5077745;28;20036;-82
2023/08/08 01:36:43;;;;;;;2.95;1.25;;;;;;;-145.00;60.06;73904.94;5079439;28;20029;-81
2023/08/08 01:39:12;;;;;;;;;;;;;;;-145.00;59.37;73877.88;5079331;28;20414;-81
2023/08/08 01:41:42;;;;;;;3.25;1.88;;;;;;;-145.00;59.16;73882.03;5078228;28;19916;-81
2023/08/08 01:44:10;;;;;;;7.10;1.70;;;;;;;-145.00;60.14;73900.78;5077284;28;20038;-81
2023/08/08 01:46:38;;;;;;;3.80;1.83;;;;;;;-145.00;60.10;73896.63;5076605;28;20050;-82
2023/08/08 01:49:04;;;;;;;3.90;2.17;;;;;;;-145.00;59.10;73871.63;5077634;28;20480;-81
2023/08/08 01:51:31;;;;;;;4.63;1.88;;;;;;;-145.00;58.67;73848.72;5078126;28;20051;-80
2023/08/08 01:53:57;;;;;;;3.53;2.00;;;;;;;-145.00;58.86;73846.63;5077857;28;20040;-81
2023/08/08 01:56:24;;;;;;;4.00;1.92;;;;;;;-145.00;59.05;73859.13;5075168;28;20044;-81
2023/08/08 01:58:52;;;;;;;3.08;1.85;;;;;;;-145.00;58.96;73867.47;5076323;28;20049;-81
2023/08/08 02:01:18;;;;;;;3.35;1.80;;;;;;;-145.00;59.63;73904.94;5076356;28;20047;-81
2023/08/08 02:03:45;;;;;;;3.38;1.92;;;;;;;-145.00;59.80;73913.28;5077630;28;20051;-81
2023/08/08 02:06:11;;;;;;;2.88;1.75;;;;;;;-145.00;60.16;73913.28;5077677;28;20397;-81
2023/08/08 02:08:37;;;;;;;13.98;1.75;;;;;;;-145.00;59.27;73871.63;5078206;28;20147;-81
2023/08/08 02:11:04;;;;;;;3.13;1.70;;;;;;;-145.00;58.99;73869.53;5070544;28;20037;-80
2023/08/08 02:13:30;;;;;;;4.78;1.67;;;;;;;-145.00;58.69;73857.06;5076429;28;20033;-80
2023/08/08 02:15:58;;;;;;;4.85;1.60;;;;;;;-145.00;58.64;73863.28;5077518;28;20425;-81
2023/08/08 02:18:25;;;;;;;4.00;2.10;;;;;;;-145.00;58.35;73848.72;5076982;28;20040;-81
2023/08/08 02:20:51;;;;;;;3.17;1.70;;;;;;;-145.00;58.24;73842.47;5076523;28;20040;-79
2023/08/08 02:23:18;;;;;;;5.65;1.70;;;;;;;-145.00;58.55;73875.78;5074535;28;20044;-80
2023/08/08 02:25:45;;;;;;;3.83;1.92;;;;;;;-145.00;58.99;73888.28;5077372;28;20040;-81
2023/08/08 02:28:11;;;;;;;5.28;1.95;;;;;;;-145.00;58.97;73884.13;5076770;28;20048;-81
2023/08/08 02:30:38;;;;;;;2.72;1.45;;;;;;;-145.00;58.72;73863.28;5076942;28;20660;-81
2023/08/08 02:33:06;;;;;;;3.58;1.40;;;;;;;-145.00;58.54;73842.47;5069806;28;20063;-80
2023/08/08 02:35:32;;;;;;;4.20;1.88;;;;;;;-145.00;58.33;73838.31;5076249;28;20047;-83
2023/08/08 02:37:59;;;;;;;3.88;1.77;;;;;;;-145.00;58.38;73852.88;5076646;28;20051;-80
2023/08/08 02:40:26;;;;;;;3.33;1.80;;;;;;;-145.00;58.33;73844.56;5075501;28;20040;-79
2023/08/08 02:42:53;;;;;;;3.95;1.95;;;;;;;-145.00;58.19;73838.31;5075652;28;20052;-79
2023/08/08 02:45:19;;;;;;;3.42;1.15;;;;;;;-145.00;58.08;73850.81;5076924;28;20044;-81
2023/08/08 02:47:46;;;;;;;3.90;1.92;;;;;;;-145.00;58.91;73888.28;5077247;28;20048;-81
2023/08/08 02:50:14;;;;;;;3.85;1.88;;;;;;;-145.00;59.02;73892.44;5075220;28;20043;-79
2023/08/08 02:52:40;;;;;;;3.80;1.92;;;;;;;-145.00;58.93;73900.78;5074502;28;20044;-82
2023/08/08 02:55:08;;;;;;;2.90;1.70;;;;;;;-145.00;58.69;73884.13;5076157;28;20051;-81
2023/08/08 02:57:34;;;;;;;2.67;1.52;;;;;;;-145.00;58.58;73879.97;5076798;28;20279;-81
2023/08/08 03:00:01;;;;;;;3.60;1.80;;;;;;;-145.00;58.62;73879.97;5077395;28;20052;-81
2023/08/08 03:02:27;;;;;;;4.95;2.17;;;;;;;-145.00;59.14;73913.28;5075311;28;20032;-82
2023/08/08 03:04:54;;;;;;;3.95;2.00;;;;;;;-145.00;59.82;73938.25;5072070;28;20048;-81
2023/08/08 03:07:22;;;;;;;2.67;1.60;;;;;;;-145.00;59.71;73936.19;5076472;28;20051;-80
2023/08/08 03:09:48;;;;;;;4.53;2.38;;;;;;;-145.00;59.91;73938.25;5076504;28;20527;-81
2023/08/08 03:12:14;;;;;;;2.42;1.50;;;;;;;-145.00;60.37;73952.84;5075673;28;20036;-81
2023/08/08 03:14:41;;;;;;;3.60;1.88;;;;;;;-145.00;60.79;73971.56;5076634;28;20525;-81
2023/08/08 03:17:07;;;;;;;2.45;1.63;;;;;;;-145.00;61.71;73996.56;5075297;28;20400;-83
2023/08/08 03:19:34;;;;;;;3.38;1.83;;;;;;;-145.00;60.80;73973.66;5076212;28;20040;-81
2023/08/08 03:22:00;;;;;;;5.35;2.50;;;;;;;-145.00;61.47;73996.56;5074979;28;20067;-81
2023/08/08 03:24:28;;;;;;;4.28;1.90;;;;;;;-145.00;61.28;73986.16;5075238;28;20036;-83
2023/08/08 03:26:55;;;;;;;3.42;2.08;;;;;;;-145.00;60.79;73965.34;5075314;28;20044;-82
2023/08/08 03:29:21;;;;;;;2.97;1.70;;;;;;;-145.00;60.81;73963.25;5075675;28;21020;-81
2023/08/08 03:31:48;;;;;;;4.07;2.20;;;;;;;-145.00;60.91;73977.81;5072607;28;20509;-79
2023/08/08 03:34:14;;;;;;;4.18;2.03;;;;;;;-145.00;59.97;73929.94;5075276;28;20043;-81
2023/08/08 03:36:42;;;;;;;4.70;2.28;;;;;;;-145.00;59.89;73917.44;5076713;28;20046;-80
2023/08/08 03:39:08;;;;;;;4.47;1.95;;;;;;;-145.00;59.60;73911.19;5075741;28;20041;-81
2023/08/08 03:41:37;;;;;;;4.85;1.90;;;;;;;-145.00;59.89;73938.25;5074735;28;20104;-80
2023/08/08 03:44:03;;;;;;;3.78;2.00;;;;;;;-145.00;60.66;73954.91;5075751;28;20064;-83
2023/08/08 03:46:30;;;;;;;3.88;1.80;;;;;;;-145.00;60.32;73963.25;5075833;28;20051;-81
2023/08/08 03:48:56;;;;;;;5.97;2.08;;;;;;;-145.00;61.12;73979.91;5076047;28;20147;-82
2023/08/08 03:51:23;;;;;;;4.65;1.88;;;;;;;-145.00;61.05;73971.56;5070698;28;20118;-81
2023/08/08 03:53:50;;;;;;;4.20;2.13;;;;;;;-145.00;61.02;73971.56;5076099;28;20040;-82
2023/08/08 03:56:16;;;;;;;4.07;2.10;;;;;;;-145.00;61.43;73996.56;5068661;28;20037;-82
2023/08/08 03:58:44;;;;;;;3.53;1.67;;;;;;;-145.00;61.57;73992.41;5076288;28;20044;-81
2023/08/08 04:01:10;;;;;;;5.63;2.30;;;;;;;-145.00;61.44;73988.25;5075048;28;20055;-82
2023/08/08 04:03:37;;;;;;;4.55;1.85;;;;;;;-145.00;60.67;73967.41;5075671;28;20048;-82
2023/08/08 04:06:04;;;;;;;4.00;1.83;;;;;;;-145.00;60.96;73979.91;5075393;28;20113;-80
2023/08/08 04:08:30;;;;;;;5.80;1.90;;;;;;;-145.00;61.36;73984.06;5075616;28;20036;-82
2023/08/08 04:10:57;;;;;;;5.40;2.55;;;;;;;-145.00;61.63;73998.66;5075676;28;20086;-81
2023/08/08 04:13:23;;;;;;;3.55;1.90;;;;;;;-145.00;60.84;73967.41;5075416;28;20051;-81
2023/08/08 04:15:52;;;;;;;7.53;2.25;;;;;;;-145.00;61.50;74000.72;5075976;28;20048;-81
2023/08/08 04:18:18;;;;;;;4.85;2.17;;;;;;;-145.00;61.45;73984.06;5075254;28;20045;-81
2023/08/08 04:20:53;;;;;;;3.33;1.75;;;;;;;-145.00;61.34;73986.16;5074169;28;20036;-81
2023/08/08 04:23:20;;;;;;;5.35;1.48;;;;;;;-145.00;61.77;73975.75;5074025;28;20047;-81
2023/08/08 04:25:46;;;;;;;5.40;2.30;;;;;;;-145.00;61.61;73973.66;5072206;28;20037;-82
2023/08/08 04:28:13;;;;;;;4.05;1.77;;;;;;;-145.00;60.61;73952.84;5075627;28;20045;-82
2023/08/08 04:30:39;;;;;;;4.68;1.80;;;;;;;-145.00;61.23;73957.00;5075683;28;20070;-82
2023/08/08 04:33:07;;;;;;;5.28;2.20;;;;;;;-145.00;60.75;73967.41;5074172;28;20050;-85
2023/08/08 04:35:33;;;;;;;4.00;1.70;;;;;;;-145.00;61.15;73971.56;5076605;28;20044;-82
2023/08/08 04:38:00;;;;;;;5.20;2.40;;;;;;;-145.00;60.40;73946.59;5078780;28;20044;-81
2023/08/08 04:40:26;;;;;;;4.97;2.15;;;;;;;-145.00;61.02;73967.41;5072907;28;20561;-81
2023/08/08 04:42:53;;;;;;;4.97;1.92;;;;;;;-145.00;59.86;73929.94;5077998;28;20060;-81
2023/08/08 04:45:20;;;;;;;3.05;1.55;;;;;;;-145.00;60.17;73925.75;5076894;28;20043;-81
2023/08/08 04:47:47;;;;;;;3.25;1.80;;;;;;;-145.00;59.56;73900.78;5078073;28;20052;-81
2023/08/08 04:50:15;;;;;;;6.45;2.75;;;;;;;-145.00;58.67;73890.38;5072052;28;20052;-82
2023/08/08 04:52:41;;;;;;;5.20;2.58;;;;;;;-145.00;59.39;73932.00;5075350;28;20048;-81
2023/08/08 04:55:08;;;;;;;6.00;2.60;;;;;;;-145.00;60.29;73946.59;5075000;28;20127;-82
2023/08/08 04:57:35;;;;;;;4.97;2.75;;;;;;;-145.00;60.00;73919.53;5075407;28;20053;-80
2023/08/08 05:00:05;;;;;;;5.78;2.60;;;;;;;-145.00;59.77;73929.94;5075519;28;20045;-81
2023/08/08 05:02:31;;;;;;;7.20;3.10;;;;;;;-145.00;60.03;73925.75;5075083;28;20128;-83
2023/08/08 05:04:58;;;;;;;4.50;1.77;;;;;;;-145.00;60.15;73925.75;5074916;28;20044;-81
2023/08/08 05:07:26;;;;;;;7.82;2.75;;;;;;;-145.00;60.50;73936.19;5075090;28;20041;-82
2023/08/08 05:09:52;;;;;;;6.25;2.88;;;;;;;-145.00;59.89;73909.09;5073345;28;20700;-81
2023/08/08 05:12:18;;;;;;;4.90;2.15;;;;;;;-145.00;59.64;73913.28;5074297;28;20045;-81
2023/08/08 05:14:45;;;;;;;4.85;2.13;;;;;;;-145.00;60.06;73913.28;5077070;28;20059;-82
2023/08/08 05:17:11;;;;;;;6.45;2.60;;;;;;;-145.00;59.97;73917.44;5077391;28;20044;-83
2023/08/08 05:19:38;;;;;;;5.78;2.50;;;;;;;-145.00;59.54;73898.69;5077371;28;20056;-81
2023/08/08 05:22:05;;;;;;;4.50;2.42;;;;;;;-145.00;59.95;73879.97;5077239;28;20413;-83
2023/08/08 05:24:33;;;;;;;3.65;1.75;;;;;;;-145.00;59.52;73886.19;5077603;28;20060;-81
2023/08/08 05:26:59;;;;;;;5.63;2.53;;;;;;;-145.00;60.32;73898.69;5077635;28;20041;-81
2023/08/08 05:29:26;;;;;;;3.70;1.73;;;;;;;-145.00;60.70;73888.28;5077550;28;20056;-82
2023/08/08 05:31:52;;;;;;;4.50;2.22;;;;;;;-145.00;59.24;73867.47;5078037;28;20482;-84
2023/08/08 05:34:19;;;;;;;3.80;1.98;;;;;;;-145.00;59.42;73865.38;5077846;28;20040;-81
2023/08/08 05:36:45;;;;;;;6.18;2.30;;;;;;;-145.00;59.40;73867.47;5077747;28;20046;-79
2023/08/08 05:39:12;;;;;;;5.15;2.05;;;;;;;-145.00;59.06;73865.38;5077943;28;20045;-83
2023/08/08 05:41:40;;;;;;;6.72;2.38;;;;;;;-145.00;59.55;73859.13;5078674;28;20048;-81
2023/08/08 05:44:06;;;;;;;3.70;2.00;;;;;;;-145.00;59.02;73861.22;5077639;28;20050;-81
2023/08/08 05:46:32;;;;;;;5.65;2.20;;;;;;;-145.00;59.65;73871.63;5077491;28;20397;-82
2023/08/08 05:49:01;;;;;;;4.20;2.15;;;;;;;-145.00;59.63;73859.13;5077718;28;20052;-81
2023/08/08 05:51:27;;;;;;;5.45;2.00;;;;;;;-145.00;58.27;73813.31;5077783;28;20090;-79
2023/08/08 05:53:54;;;;;;;7.18;2.13;;;;;;;-145.00;57.73;73823.72;5077285;28;20048;-83
2023/08/08 05:56:20;;;;;;;3.60;2.10;;;;;;;-145.00;58.38;73823.72;5076768;28;20041;-81
2023/08/08 05:58:48;;;;;;;4.68;1.60;;;;;;;-145.00;58.64;73813.31;5077940;28;20444;-81
2023/08/08 06:01:15;;;;;;;5.00;2.22;;;;;;;-145.00;58.11;73817.50;5076830;28;20428;-81
2023/08/08 06:03:42;;;;;;;4.10;1.88;;;;;;;-145.00;57.95;73792.50;5077600;28;20139;-82
2023/08/08 06:06:08;;;;;;;5.55;3.17;;;;;;;-145.00;58.19;73792.50;5076960;28;20075;-82
2023/08/08 06:08:35;;;;;;;4.35;2.10;;;;;;;-145.00;58.21;73792.50;5077430;28;20694;-82
2023/08/08 06:11:02;;;;;;;5.32;2.20;;;;;;;-145.00;58.17;73784.16;5077193;28;20044;-82
2023/08/08 06:13:28;;;;;;;4.10;2.10;;;;;;;-145.00;58.45;73792.50;5077373;28;20529;-84
2023/08/08 06:15:56;;;;;;;3.53;1.88;;;;;;;-145.00;58.38;73771.69;5077774;28;20064;-85
2023/08/08 06:18:22;;;;;;;5.78;2.08;;;;;;;-145.00;58.54;73796.66;5076777;28;20043;-82
2023/08/08 06:20:49;;;;;;;4.78;1.83;;;;;;;-145.00;58.33;73788.34;5076448;28;20502;-82
2023/08/08 06:23:15;;;;;;;5.07;2.22;;;;;;;-145.00;58.48;73796.66;5076999;28;20048;-82
2023/08/08 06:25:42;;;;;;;3.40;2.17;;;;;;;-145.00;58.04;73782.09;5077673;28;20084;-81
2023/08/08 06:28:08;;;;;;;5.10;2.20;;;;;;;-145.00;57.98;73782.09;5076477;28;20040;-82
2023/08/08 06:30:35;;;;;;;4.75;1.90;;;;;;;-145.00;57.07;73771.69;5076672;28;20044;-82
2023/08/08 06:33:03;;;;;;;4.30;1.92;;;;;;;-145.00;57.82;73780.00;5077264;28;20048;-84
2023/08/08 06:35:29;;;;;;;3.17;1.80;;;;;;;-145.00;57.51;73750.84;5076531;28;20089;-84
2023/08/08 06:37:56;;;;;;;5.32;2.00;;;;;;;-145.00;57.41;73755.03;5076861;28;20252;-81
2023/08/08 06:40:23;;;;;;;3.92;1.80;;;;;;;-145.00;58.00;73734.19;5076381;28;20083;-84
2023/08/08 06:42:50;;;;;;;4.93;1.80;;;;;;;-145.00;56.30;73721.69;5077031;28;20120;-84
2023/08/08 06:45:16;;;;;;;3.83;1.85;;;;;;;-145.00;56.50;73713.38;5075983;28;20044;-84
2023/08/08 06:47:43;;;;;;;3.88;2.13;;;;;;;-145.00;56.38;73692.56;5076599;28;20045;-82
2023/08/08 06:50:11;;;;;;;4.13;2.05;;;;;;;-145.00;56.41;73692.56;5075608;28;20044;-84
2023/08/08 06:52:37;;;;;;;3.70;1.77;;;;;;;-145.00;56.38;73700.88;5076654;28;20083;-82
2023/08/08 06:55:04;;;;;;;4.18;2.00;;;;;;;-145.00;56.13;73688.38;5076453;28;20051;-84
2023/08/08 06:57:34;;;;;;;3.95;1.88;;;;;;;-145.00;56.47;73684.22;5069101;28;20044;-82
2023/08/08 07:00:00;;;;;;;4.70;2.30;;;;;;;-145.00;55.78;73671.72;5076709;28;20048;-84
2023/08/08 07:02:27;;;;;;;3.17;1.70;;;;;;;-145.00;55.65;73663.41;5076375;28;20040;-82
2023/08/08 07:04:53;;;;;;;5.72;1.58;;;;;;;-145.00;55.04;73617.59;5075901;28;20046;-84
2023/08/08 07:07:21;;;;;;;5.95;2.33;;;;;;;-145.00;54.10;73598.84;5075402;28;20047;-82
2023/08/08 07:09:49;;;;;;;4.22;1.80;;;;;;;-145.00;53.89;73567.63;5075909;28;20045;-81
2023/08/08 07:12:15;;;;;;;3.88;2.00;;;;;;;-145.00;53.69;73534.31;5075153;28;20044;-83
2023/08/08 07:14:41;;;;;;;6.18;1.92;;;;;;;-145.00;53.27;73532.22;5076114;28;20044;-83
2023/08/08 07:17:08;;;;;;;8.63;1.63;;;;;;;-145.00;55.01;73559.28;5076189;28;20045;-82
2023/08/08 07:19:34;;;;;;;4.72;2.10;;;;;;;-145.00;53.15;73538.47;5075700;28;20040;-82
2023/08/08 07:22:01;;;;;;;4.68;2.35;;;;;;;-145.00;52.91;73505.16;5075916;28;20044;-82
2023/08/08 07:24:29;;;;;;;3.67;1.70;;;;;;;-145.00;52.70;73473.94;5075625;28;20048;-83
2023/08/08 07:26:56;;;;;;;2.33;1.50;;;;;;;-145.00;53.23;73467.69;5075765;28;20045;-83
2023/08/08 07:29:23;;;;;;;4.22;1.80;;;;;;;-145.00;50.81;73467.69;5074950;28;20123;-82
2023/08/08 07:31:50;;;;;;;4.80;1.70;;;;;;;-145.00;51.29;73451.03;5075249;28;20044;-81
2023/08/08 07:34:16;;;;;;;6.45;2.03;;;;;;;-145.00;49.93;73428.13;5074489;28;20559;-82
2023/08/08 07:36:43;;;;;;;4.50;1.92;;;;;;;-145.00;50.46;73421.88;5075113;28;20128;-81
2023/08/08 07:39:09;;;;;;;3.45;1.80;;;;;;;-145.00;50.77;73396.88;5075672;28;20048;-81
2023/08/08 07:41:37;;;;;;;3.40;1.80;;;;;;;-145.00;50.95;73380.22;5075529;28;20093;-82
2023/08/08 07:44:04;;;;;;;4.38;1.50;;;;;;;-145.00;49.41;73363.56;5075101;28;20056;-81
2023/08/08 07:46:31;;;;;;;3.13;1.67;;;;;;;-145.00;49.05;73351.09;5075264;28;20040;-81
2023/08/08 07:48:59;;;;;;;4.63;1.60;;;;;;;-145.00;48.27;73263.63;5074924;28;20616;-81
2023/08/08 07:51:25;;;;;;;2.40;1.50;;;;;;;-145.00;46.98;73190.78;5074401;28;20044;-82
2023/08/08 07:53:52;;;;;;;2.88;1.55;;;;;;;-145.00;45.63;73178.28;5075446;28;20504;-82
2023/08/08 07:56:18;;;;;;;2.80;1.67;;;;;;;-145.00;46.00;73180.34;5074272;28;20152;-81
2023/08/08 07:58:46;;;;;;;2.35;1.30;;;;;;;-145.00;45.25;73117.91;5075151;28;20049;-81
2023/08/08 08:01:13;;;;;;;5.22;1.45;;;;;;;-145.00;43.72;73097.09;5074730;28;20041;-84
2023/08/08 08:03:40;;;;;;;2.80;1.50;;;;;;;-145.00;43.86;73138.72;5075232;28;20044;-80
2023/08/08 08:06:06;;;;;;;1.90;1.20;;;;;;;-145.00;44.30;73167.88;5074846;28;20119;-82
2023/08/08 08:08:33;;;;;;;2.03;1.30;;;;;;;-145.00;43.79;73155.38;5075581;28;20036;-82
2023/08/08 08:10:59;;;;;;;3.13;1.60;;;;;;;-145.00;45.30;73155.38;5077817;28;20412;-80
2023/08/08 08:13:26;;;;;;;1.67;1.15;;;;;;;-145.00;45.09;73109.56;5078592;28;20037;-83
2023/08/08 08:15:54;;;;;;;3.30;1.50;;;;;;;-145.00;43.61;73076.25;5079066;28;20049;-82
2023/08/08 08:18:20;;;;;;;5.38;1.40;;;;;;;-145.00;43.38;73047.13;5078617;28;20043;-82
2023/08/08 08:20:47;;;;;;;1.90;0.95;;;;;;;-145.00;42.25;72980.50;5079294;28;20045;-81
2023/08/08 08:23:14;;;;;;;3.17;1.30;;;;;;;-145.00;42.54;73017.97;5078989;28;20041;-82
2023/08/08 08:25:40;;;;;;;1.85;1.00;;;;;;;-145.00;44.21;73076.25;5078976;28;20056;-81
2023/08/08 08:28:07;;;;;;;3.13;1.20;;;;;;;-145.00;42.44;72980.50;5078825;28;20044;-82
2023/08/08 08:30:34;;;;;;;2.00;1.13;;;;;;;-145.00;42.00;73034.63;5078906;28;20044;-81
2023/08/08 08:33:03;;;;;;;1.45;1.13;;;;;;;-145.00;43.11;73080.44;5079216;28;20048;-82
2023/08/08 08:35:30;;;;;;;2.20;1.25;;;;;;;-145.00;42.91;73045.03;5078896;28;20094;-81
2023/08/08 08:37:57;;;;;;;3.35;1.40;;;;;;;-145.00;42.38;72930.53;5078244;28;20047;-82
2023/08/08 08:40:24;;;;;;;3.47;1.00;;;;;;;-145.00;41.26;72930.53;5077474;28;20457;-80
2023/08/08 08:42:51;;;;;;;4.97;1.20;;;;;;;-145.00;41.00;72901.38;5078141;28;20056;-82
2023/08/08 08:45:20;;;;;;;2.25;1.30;;;;;;;-145.00;40.16;72913.88;5078085;28;20045;-83
2023/08/08 08:47:48;;;;;;;3.55;1.55;;;;;;;-145.00;41.52;72963.84;5078965;28;20048;-82
2023/08/08 08:50:16;;;;;;;5.22;1.77;;;;;;;-145.00;40.58;72947.19;5077822;28;20041;-80
2023/08/08 08:52:43;;;;;;;3.00;1.40;;;;;;;-145.00;41.19;72905.56;5070189;28;20044;-80
2023/08/08 08:55:10;;;;;;;2.85;1.42;;;;;;;-145.00;41.43;72872.25;5077884;28;20056;-80
2023/08/08 08:57:37;;;;;;;2.70;1.50;;;;;;;-145.00;39.99;72822.28;5078365;28;20123;-82
2023/08/08 09:00:05;;;;;;;3.30;1.60;;;;;;;-145.00;40.25;72876.41;5077937;28;20044;-80
2023/08/08 09:02:32;;;;;;;4.72;1.63;;;;;;;-145.00;41.76;72951.34;5078057;28;20041;-79
2023/08/08 09:05:01;;;;;;;3.97;1.90;;;;;;;-145.00;41.38;72943.03;5077993;28;20052;-83
2023/08/08 09:07:32;;;;;;;4.97;1.60;;;;;;;-145.00;42.38;72926.38;5078141;28;20037;-81
2023/08/08 09:09:59;;;;;;;2.65;1.60;;;;;;;-145.00;41.82;72945.09;5078663;28;20408;-83
2023/08/08 09:12:25;;;;;;;4.03;1.80;;;;;;;-145.00;40.06;72972.16;5077177;28;20051;-83
2023/08/08 09:14:55;;;;;;;3.00;1.67;;;;;;;-145.00;39.47;72963.84;5077814;28;20044;-82
2023/08/08 09:17:22;;;;;;;4.15;1.83;;;;;;;-145.00;39.37;72918.03;5077291;28;20054;-82
2023/08/08 09:19:48;;;;;;;2.90;1.65;;;;;;;-145.00;39.57;72838.94;5077617;28;20276;-80
2023/08/08 09:22:15;;;;;;;7.30;1.88;;;;;;;-145.00;39.10;72832.69;5075838;28;20047;-81
2023/08/08 09:24:43;;;;;;;3.42;1.48;;;;;;;-145.00;38.95;72872.25;5075230;28;20044;-83
2023/08/08 09:27:10;;;;;;;3.03;1.58;;;;;;;-145.00;40.35;72893.06;5076495;28;20048;-80
2023/08/08 09:29:37;;;;;;;3.53;1.67;;;;;;;-145.00;38.66;72888.91;5077307;28;20040;-83
2023/08/08 09:32:04;;;;;;;6.18;2.22;;;;;;;-145.00;39.94;72874.31;5077469;28;20040;-80
2023/08/08 09:34:31;;;;;;;3.53;1.50;;;;;;;-145.00;38.58;72780.66;5077715;28;20071;-83
2023/08/08 09:36:58;;;;;;;3.80;1.58;;;;;;;-145.00;38.15;72772.31;5077538;28;20043;-82
2023/08/08 09:39:24;;;;;;;4.43;2.00;;;;;;;-145.00;37.97;72739.00;5076085;28;20037;-83
2023/08/08 09:41:52;;;;;;;2.95;1.20;;;;;;;-145.00;37.64;72751.50;5077941;28;20040;-80
2023/08/08 09:44:19;;;;;;;4.68;1.45;;;;;;;-145.00;38.78;72813.94;5076813;28;20504;-80
2023/08/08 09:46:45;;;;;;;3.25;1.55;;;;;;;-145.00;39.42;72836.84;5068840;28;20036;-83
2023/08/08 09:49:12;;;;;;;4.05;1.73;;;;;;;-145.00;39.97;72811.88;5076176;28;20050;-83
2023/08/08 09:51:40;;;;;;;3.13;1.70;;;;;;;-145.00;38.62;72768.16;5077120;28;20102;-82
2023/08/08 09:54:07;;;;;;;3.63;1.17;;;;;;;-145.00;39.28;72809.78;5076420;28;20504;-79
2023/08/08 09:56:35;;;;;;;4.63;2.05;;;;;;;-145.00;39.25;72809.78;5076477;28;20044;-83
2023/08/08 09:59:04;;;;;;;3.97;2.28;;;;;;;-145.00;39.72;72830.59;5076601;28;20040;-83
2023/08/08 10:01:32;;;;;;;4.55;2.28;;;;;;;-145.00;39.01;72755.66;5075849;28;20044;-80
2023/08/08 10:04:00;;;;;;;3.65;1.45;;;;;;;-145.00;38.10;72826.44;5076851;28;20044;-81
2023/08/08 10:06:27;;;;;;;2.88;1.30;;;;;;;-145.00;38.53;72853.50;5076930;28;20052;-80
2023/08/08 10:08:54;;;;;;;3.33;1.42;;;;;;;-145.00;39.48;72826.44;5076750;28;20037;-82
2023/08/08 10:11:23;;;;;;;4.25;1.98;;;;;;;-145.00;39.89;72816.03;5076296;28;20111;-82
2023/08/08 10:13:51;;;;;;;3.20;1.55;;;;;;;-145.00;40.24;72741.09;5068364;28;20048;-83
2023/08/08 10:16:19;;;;;;;5.07;1.65;;;;;;;-145.00;38.24;72730.69;5075979;28;20048;-81
2023/08/08 10:18:46;;;;;;;2.90;1.80;;;;;;;-145.00;38.47;72722.34;5075138;28;20047;-81
2023/08/08 10:21:14;;;;;;;3.85;1.63;;;;;;;-145.00;36.99;72707.78;5075079;28;20036;-82
2023/08/08 10:23:40;;;;;;;3.55;1.80;;;;;;;-145.00;36.88;72709.88;5075734;28;20154;-83
2023/08/08 10:26:18;;;;;;;4.13;1.85;;;;;;;-145.00;37.01;72682.81;5074381;28;20044;-81
2023/08/08 10:28:54;;;;;;;6.00;1.85;;;;;;;-145.00;38.15;72739.00;5074606;28;20051;-81
2023/08/08 10:31:22;;;;;;;3.58;1.80;;;;;;;-145.00;37.75;72774.41;5074873;28;20498;-78
2023/08/08 10:33:49;;;;;;;3.45;1.50;;;;;;;-145.00;36.48;72722.34;5074567;28;20040;-82
2023/08/08 10:36:17;;;;;;;3.25;1.55;;;;;;;-145.00;36.91;72697.38;5074418;28;20043;-80
2023/08/08 10:38:46;;;;;;;3.00;1.33;;;;;;;-145.00;36.01;72664.06;5074074;28;20048;-81
2023/08/08 10:41:17;;;;;;;4.47;1.67;;;;;;;-145.00;36.42;72718.19;5074755;28;20036;-82
2023/08/08 10:43:51;;;;;;;4.00;1.92;;;;;;;-145.00;36.54;72709.88;5075627;28;20429;-81
2023/08/08 10:46:26;;;;;;;4.63;1.85;;;;;;;-145.00;35.97;72676.56;5074917;28;20040;-84
2023/08/08 10:48:53;;;;;;;3.97;1.88;;;;;;;-145.00;35.14;72693.22;5067244;28;20043;-82
2023/08/08 10:51:20;;;;;;;4.72;1.95;;;;;;;-145.00;36.67;72743.19;5074002;28;20047;-82
2023/08/08 10:53:47;;;;;;;3.05;1.60;;;;;;;-145.00;36.12;72734.84;5075103;28;20047;-81
2023/08/08 10:56:14;;;;;;;3.78;1.90;;;;;;;-145.00;35.90;72749.41;5074236;28;20075;-79
2023/08/08 10:58:48;;;;;;;4.50;1.70;;;;;;;-145.00;36.39;72716.13;5072926;28;20044;-81
2023/08/08 11:01:16;;;;;;;3.65;1.50;;;;;;;-145.00;37.34;72770.25;5081277;22;20063;-82
2023/08/08 11:03:44;;;;;;;5.03;1.92;;;;;;;-145.00;36.64;72772.31;5075950;28;20049;-82
2023/08/08 11:06:11;;;;;;;4.35;2.10;;;;;;;-145.00;36.57;72809.78;5074870;28;20039;-82
2023/08/08 11:08:38;;;;;;;3.47;1.77;;;;;;;-145.00;36.84;72813.94;5075730;28;20045;-81
2023/08/08 11:11:05;;;;;;;3.90;1.67;;;;;;;-145.00;37.38;72784.81;5057488;28;20449;-81
2023/08/08 11:13:32;;;;;;;4.88;1.90;;;;;;;-145.00;36.37;72759.81;5055044;28;20383;-81
2023/08/08 11:16:01;;;;;;;2.60;1.52;;;;;;;-145.00;37.13;72801.47;5055551;28;20041;-83